Time;durP1;ratioP1;P1;durP2;ratioP2;P2;SDS_P1;SDS_P2;PMS_P1;PMS_P2;Temp;Humidity;BMP_temperature;BMP_pressure;BME280_temperature;BME280_humidity;BME280_pressure;Samples;Min_cycle;Max_cycle;Signal;HPM_P1;HPM_P2
2023/10/23 00:02:02;;;;;;;3.13;1.42;;;;;;;;;;4956176;28;20473;-63
2023/10/23 00:04:28;;;;;;;3.92;1.83;;;;;;;;;;4956197;28;20045;-63
2023/10/23 00:06:53;;;;;;;4.97;1.58;;;;;;;;;;4956105;28;20118;-63
2023/10/23 00:09:20;;;;;;;4.07;1.80;;;;;;;;;;4956015;28;20119;-62
2023/10/23 00:11:45;;;;;;;2.95;1.80;;;;;;;;;;4955969;28;20027;-63
2023/10/23 00:14:11;;;;;;;4.70;2.25;;;;;;;;;;4955973;28;20049;-63
2023/10/23 00:16:36;;;;;;;6.45;2.28;;;;;;;;;;4955998;28;20039;-63
2023/10/23 00:19:02;;;;;;;3.80;2.33;;;;;;;;;;4955550;28;20035;-63
2023/10/23 00:21:27;;;;;;;5.00;2.50;;;;;;;;;;4961841;28;20014;-63
2023/10/23 00:23:52;;;;;;;5.07;2.53;;;;;;;;;;4975120;28;20030;-63
2023/10/23 00:26:18;;;;;;;6.75;2.42;;;;;;;;;;4975013;28;20088;-63
2023/10/23 00:28:43;;;;;;;4.05;2.10;;;;;;;;;;4973353;28;20388;-63
2023/10/23 00:31:09;;;;;;;4.47;2.70;;;;;;;;;;4955743;28;20501;-63
2023/10/23 00:33:34;;;;;;;6.88;2.40;;;;;;;;;;4961414;28;20058;-63
2023/10/23 00:36:00;;;;;;;3.92;2.20;;;;;;;;;;4974830;28;20027;-63
2023/10/23 00:38:27;;;;;;;4.80;2.40;;;;;;;;;;4974777;28;20356;-63
2023/10/23 00:40:53;;;;;;;4.20;2.42;;;;;;;;;;4974683;28;20033;-63
2023/10/23 00:43:20;;;;;;;3.88;2.78;;;;;;;;;;4974644;28;20026;-63
2023/10/23 00:45:52;;;;;;;6.88;3.00;;;;;;;;;;4974773;28;20468;-63
2023/10/23 00:48:20;;;;;;;3.58;2.45;;;;;;;;;;4974463;28;20031;-63
2023/10/23 00:50:48;;;;;;;4.90;2.75;;;;;;;;;;4974551;28;20030;-63
2023/10/23 00:53:14;;;;;;;4.25;2.20;;;;;;;;;;4974514;28;20029;-63
2023/10/23 00:55:40;;;;;;;6.45;2.45;;;;;;;;;;4974650;28;20392;-63
2023/10/23 00:58:05;;;;;;;3.03;1.95;;;;;;;;;;4974603;28;20101;-63
2023/10/23 01:00:33;;;;;;;3.88;2.00;;;;;;;;;;4974334;28;20476;-63
2023/10/23 01:02:59;;;;;;;2.47;1.65;;;;;;;;;;4973975;28;20042;-63
2023/10/23 01:05:24;;;;;;;3.10;1.67;;;;;;;;;;4974594;28;20034;-64
2023/10/23 01:07:50;;;;;;;4.10;2.03;;;;;;;;;;4974411;28;20031;-64
2023/10/23 01:10:15;;;;;;;3.85;1.92;;;;;;;;;;4974442;28;20025;-63
2023/10/23 01:12:41;;;;;;;3.90;1.85;;;;;;;;;;4974383;28;20030;-63
2023/10/23 01:15:07;;;;;;;3.95;1.63;;;;;;;;;;4974437;28;20380;-63
2023/10/23 01:17:32;;;;;;;2.50;1.60;;;;;;;;;;4974055;28;20060;-64
2023/10/23 01:19:57;;;;;;;3.08;1.50;;;;;;;;;;4974072;28;20026;-63
2023/10/23 01:22:23;;;;;;;3.15;1.75;;;;;;;;;;4973987;28;20388;-63
2023/10/23 01:24:49;;;;;;;2.72;1.60;;;;;;;;;;4974195;28;20030;-63
2023/10/23 01:27:15;;;;;;;4.18;1.80;;;;;;;;;;4974222;28;20042;-63
2023/10/23 01:29:40;;;;;;;4.22;2.00;;;;;;;;;;4963472;28;20031;-63
2023/10/23 01:32:06;;;;;;;4.15;1.45;;;;;;;;;;4954007;28;20051;-63
2023/10/23 01:34:31;;;;;;;3.08;1.70;;;;;;;;;;4968685;28;20030;-63
2023/10/23 01:36:57;;;;;;;3.38;1.85;;;;;;;;;;4974089;28;20110;-62
2023/10/23 01:39:22;;;;;;;4.47;1.65;;;;;;;;;;4974179;28;20461;-63
2023/10/23 01:41:48;;;;;;;3.40;1.60;;;;;;;;;;4973936;28;20030;-63
2023/10/23 01:44:13;;;;;;;4.78;1.65;;;;;;;;;;4973985;28;20023;-63
2023/10/23 01:46:39;;;;;;;2.80;1.45;;;;;;;;;;4973711;28;20027;-63
2023/10/23 01:49:04;;;;;;;2.72;1.80;;;;;;;;;;4973852;28;20038;-63
2023/10/23 01:51:29;;;;;;;2.70;1.50;;;;;;;;;;4973945;28;20464;-63
2023/10/23 01:53:55;;;;;;;3.80;1.80;;;;;;;;;;4974040;28;20388;-63
2023/10/23 01:56:20;;;;;;;3.38;1.90;;;;;;;;;;4972526;28;20491;-63
2023/10/23 01:58:46;;;;;;;4.65;2.05;;;;;;;;;;4973857;28;20031;-63
2023/10/23 02:01:20;;;;;;;2.90;1.90;;;;;;;;;;4973486;28;20026;-62
2023/10/23 02:03:46;;;;;;;5.82;2.67;;;;;;;;;;4973780;28;20022;-63
2023/10/23 02:06:11;;;;;;;3.22;1.70;;;;;;;;;;4973773;28;20432;-63
2023/10/23 02:08:36;;;;;;;3.83;1.80;;;;;;;;;;4973632;28;20090;-63
2023/10/23 02:11:02;;;;;;;2.72;1.52;;;;;;;;;;4973952;28;20054;-63
2023/10/23 02:13:28;;;;;;;2.97;1.65;;;;;;;;;;4973685;28;20035;-63
2023/10/23 02:15:53;;;;;;;4.95;1.60;;;;;;;;;;4973626;28;20089;-63
2023/10/23 02:18:19;;;;;;;3.47;1.85;;;;;;;;;;4973738;28;20035;-63
2023/10/23 02:20:44;;;;;;;4.40;1.80;;;;;;;;;;4972544;28;20042;-62
2023/10/23 02:23:10;;;;;;;2.97;1.83;;;;;;;;;;4954398;28;20027;-63
2023/10/23 02:25:35;;;;;;;3.78;1.85;;;;;;;;;;4954387;28;20452;-64
2023/10/23 02:28:01;;;;;;;2.10;1.55;;;;;;;;;;4954416;28;20114;-63
2023/10/23 02:30:26;;;;;;;3.97;1.80;;;;;;;;;;4969257;28;20046;-63
2023/10/23 02:32:52;;;;;;;3.22;1.75;;;;;;;;;;4973077;28;20063;-63
2023/10/23 02:35:17;;;;;;;3.38;1.98;;;;;;;;;;4973670;28;20041;-64
2023/10/23 02:37:42;;;;;;;4.10;2.00;;;;;;;;;;4973469;28;20069;-63
2023/10/23 02:40:08;;;;;;;3.80;1.48;;;;;;;;;;4973523;28;20022;-63
2023/10/23 02:42:34;;;;;;;3.40;1.85;;;;;;;;;;4973496;28;20031;-63
2023/10/23 02:44:59;;;;;;;4.60;1.90;;;;;;;;;;4975450;28;20026;-63
2023/10/23 02:47:25;;;;;;;4.10;2.05;;;;;;;;;;4977002;28;20031;-62
2023/10/23 02:49:53;;;;;;;4.45;1.90;;;;;;;;;;4976796;28;20030;-63
2023/10/23 02:52:18;;;;;;;4.55;2.20;;;;;;;;;;4976814;28;20041;-63
2023/10/23 02:54:44;;;;;;;4.93;2.35;;;;;;;;;;4976862;28;20102;-63
2023/10/23 02:57:10;;;;;;;4.30;2.50;;;;;;;;;;4976804;28;20046;-63
2023/10/23 02:59:35;;;;;;;5.35;2.70;;;;;;;;;;4976499;28;20031;-63
2023/10/23 03:02:00;;;;;;;19.40;8.65;;;;;;;;;;4976653;28;20039;-63
2023/10/23 03:04:26;;;;;;;30.27;15.23;;;;;;;;;;4976685;28;20380;-63
2023/10/23 03:06:51;;;;;;;18.35;10.60;;;;;;;;;;4976607;28;20034;-63
2023/10/23 03:09:17;;;;;;;7.03;3.90;;;;;;;;;;4976484;28;20034;-64
2023/10/23 03:11:42;;;;;;;5.25;2.97;;;;;;;;;;4976501;28;20023;-63
2023/10/23 03:14:08;;;;;;;5.53;2.50;;;;;;;;;;4976254;28;20105;-64
2023/10/23 03:16:34;;;;;;;4.72;2.28;;;;;;;;;;4976346;28;20026;-63
2023/10/23 03:18:59;;;;;;;4.10;2.50;;;;;;;;;;4976372;28;20026;-63
2023/10/23 03:21:25;;;;;;;3.35;2.17;;;;;;;;;;4969629;28;20032;-63
2023/10/23 03:23:50;;;;;;;4.68;2.70;;;;;;;;;;4956860;28;20037;-63
2023/10/23 03:26:16;;;;;;;6.03;2.58;;;;;;;;;;4956830;28;20058;-63
2023/10/23 03:28:41;;;;;;;3.97;2.30;;;;;;;;;;4957947;28;20027;-63
2023/10/23 03:31:07;;;;;;;4.07;2.50;;;;;;;;;;4976289;28;20070;-63
2023/10/23 03:33:32;;;;;;;7.93;3.25;;;;;;;;;;4975718;28;20055;-63
2023/10/23 03:35:58;;;;;;;5.18;2.58;;;;;;;;;;4976075;28;20034;-63
2023/10/23 03:38:23;;;;;;;5.80;2.70;;;;;;;;;;4975927;28;20030;-63
2023/10/23 03:41:06;;;;;;;3.38;2.55;;;;;;;;;;4975926;28;20027;-63
2023/10/23 03:43:32;;;;;;;6.50;2.67;;;;;;;;;;4975664;28;20023;-63
2023/10/23 03:46:02;;;;;;;5.85;2.60;;;;;;;;;;4974499;28;20042;-62
2023/10/23 03:48:27;;;;;;;5.22;2.33;;;;;;;;;;4975680;28;20031;-62
2023/10/23 03:50:53;;;;;;;4.70;2.53;;;;;;;;;;4975832;28;20038;-64
2023/10/23 03:53:18;;;;;;;4.20;2.70;;;;;;;;;;4975622;28;20031;-63
2023/10/23 03:55:44;;;;;;;3.53;2.45;;;;;;;;;;4974755;28;20030;-63
2023/10/23 03:58:09;;;;;;;12.75;3.03;;;;;;;;;;4975526;28;20381;-63
2023/10/23 04:00:35;;;;;;;10.38;5.47;;;;;;;;;;4975317;28;20038;-63
2023/10/23 04:03:00;;;;;;;7.15;3.55;;;;;;;;;;4975599;28;20388;-63
2023/10/23 04:05:25;;;;;;;6.95;4.03;;;;;;;;;;4975383;28;20050;-63
2023/10/23 04:07:51;;;;;;;4.90;3.03;;;;;;;;;;4975555;28;20031;-63
2023/10/23 04:10:16;;;;;;;5.22;3.65;;;;;;;;;;4975284;28;20473;-63
2023/10/23 04:12:42;;;;;;;5.75;3.35;;;;;;;;;;4975259;28;20031;-63
2023/10/23 04:15:07;;;;;;;6.25;3.25;;;;;;;;;;4975419;28;20100;-63
2023/10/23 04:17:33;;;;;;;5.40;3.13;;;;;;;;;;4975237;28;20581;-63
2023/10/23 04:19:58;;;;;;;6.63;3.22;;;;;;;;;;4975182;28;20027;-63
2023/10/23 04:22:24;;;;;;;5.18;2.90;;;;;;;;;;4960829;28;20039;-63
2023/10/23 04:24:49;;;;;;;6.07;2.63;;;;;;;;;;4955840;28;20023;-63
2023/10/23 04:27:15;;;;;;;6.43;3.00;;;;;;;;;;4955503;28;20035;-63
2023/10/23 04:29:40;;;;;;;7.68;3.92;;;;;;;;;;4964957;28;20480;-62
2023/10/23 04:32:06;;;;;;;8.32;3.10;;;;;;;;;;4974826;28;20369;-63
2023/10/23 04:34:31;;;;;;;6.78;2.90;;;;;;;;;;4974806;28;20026;-63
2023/10/23 04:36:57;;;;;;;4.50;2.92;;;;;;;;;;4974893;28;20043;-63
2023/10/23 04:39:22;;;;;;;7.80;2.92;;;;;;;;;;4974786;28;20059;-63
2023/10/23 04:41:47;;;;;;;5.85;3.33;;;;;;;;;;4974553;28;20049;-63
2023/10/23 04:44:13;;;;;;;7.30;3.20;;;;;;;;;;4974690;28;20019;-63
2023/10/23 04:46:38;;;;;;;7.38;3.67;;;;;;;;;;4974605;28;20031;-63
2023/10/23 04:49:04;;;;;;;7.00;4.15;;;;;;;;;;4974646;28;20035;-63
2023/10/23 04:51:29;;;;;;;7.97;3.60;;;;;;;;;;4974677;28;20027;-63
2023/10/23 04:53:55;;;;;;;5.53;3.78;;;;;;;;;;4974652;28;20158;-63
2023/10/23 04:56:20;;;;;;;6.22;4.13;;;;;;;;;;4974193;28;20038;-63
2023/10/23 04:58:45;;;;;;;5.95;4.10;;;;;;;;;;4974538;28;20022;-63
2023/10/23 05:01:17;;;;;;;7.72;4.18;;;;;;;;;;4974639;28;20040;-63
2023/10/23 05:03:43;;;;;;;10.20;3.95;;;;;;;;;;4974526;28;20030;-62
2023/10/23 05:06:08;;;;;;;8.18;3.80;;;;;;;;;;4974397;28;20042;-62
2023/10/23 05:08:34;;;;;;;6.57;4.10;;;;;;;;;;4974179;28;20448;-63
2023/10/23 05:11:10;;;;;;;12.60;4.60;;;;;;;;;;4974072;28;20030;-63
2023/10/23 05:13:35;;;;;;;8.45;4.80;;;;;;;;;;4974015;28;20089;-63
2023/10/23 05:16:05;;;;;;;8.27;4.80;;;;;;;;;;4974182;28;20035;-63
2023/10/23 05:18:34;;;;;;;7.32;4.97;;;;;;;;;;4974222;28;20030;-62
2023/10/23 05:21:09;;;;;;;7.20;4.32;;;;;;;;;;4970921;28;20118;-63
2023/10/23 05:23:36;;;;;;;7.03;4.57;;;;;;;;;;4954532;28;20078;-62
2023/10/23 05:26:01;;;;;;;8.13;4.93;;;;;;;;;;4954705;28;20098;-62
2023/10/23 05:28:27;;;;;;;11.07;4.53;;;;;;;;;;4954595;28;20036;-62
2023/10/23 05:30:52;;;;;;;9.30;4.72;;;;;;;;;;4973485;28;20026;-63
2023/10/23 05:33:19;;;;;;;5.93;3.60;;;;;;;;;;4973459;28;20047;-62
2023/10/23 05:35:44;;;;;;;7.20;4.18;;;;;;;;;;4974024;28;20027;-62
2023/10/23 05:38:09;;;;;;;7.95;4.18;;;;;;;;;;4973690;28;20027;-62
2023/10/23 05:40:35;;;;;;;7.18;3.70;;;;;;;;;;4973841;28;20042;-61
2023/10/23 05:43:00;;;;;;;28.85;3.95;;;;;;;;;;4973927;28;20026;-63
2023/10/23 05:45:26;;;;;;;15.07;3.92;;;;;;;;;;4973685;28;20023;-62
2023/10/23 05:47:51;;;;;;;7.60;4.15;;;;;;;;;;4973881;28;20034;-62
2023/10/23 05:50:17;;;;;;;10.25;4.57;;;;;;;;;;4973908;28;20023;-63
2023/10/23 05:52:42;;;;;;;7.65;3.58;;;;;;;;;;4973568;28;20027;-62
2023/10/23 05:55:08;;;;;;;12.50;3.90;;;;;;;;;;4973795;28;20026;-63
2023/10/23 05:57:34;;;;;;;7.60;3.60;;;;;;;;;;4973564;28;20022;-62
2023/10/23 05:59:59;;;;;;;9.32;3.78;;;;;;;;;;4973368;28;20031;-62
2023/10/23 06:02:26;;;;;;;8.27;3.75;;;;;;;;;;4973621;28;20033;-63
2023/10/23 06:04:51;;;;;;;7.95;3.60;;;;;;;;;;4973751;28;20114;-63
2023/10/23 06:07:16;;;;;;;7.32;3.60;;;;;;;;;;4973491;28;20736;-64
2023/10/23 06:09:42;;;;;;;9.02;4.50;;;;;;;;;;4973594;28;20041;-63
2023/10/23 06:12:09;;;;;;;6.93;3.88;;;;;;;;;;4973816;28;20428;-63
2023/10/23 06:14:35;;;;;;;7.03;4.05;;;;;;;;;;4973447;28;20470;-62
2023/10/23 06:17:00;;;;;;;8.45;3.92;;;;;;;;;;4973652;28;20038;-63
2023/10/23 06:19:26;;;;;;;6.30;3.90;;;;;;;;;;4975225;28;20464;-62
2023/10/23 06:21:51;;;;;;;7.05;4.57;;;;;;;;;;4976563;28;20045;-63
2023/10/23 06:24:17;;;;;;;8.52;4.70;;;;;;;;;;4977296;28;20031;-63
2023/10/23 06:26:43;;;;;;;8.73;4.22;;;;;;;;;;4963595;28;20038;-63
2023/10/23 06:29:08;;;;;;;9.55;5.40;;;;;;;;;;4968618;28;20027;-63
2023/10/23 06:31:34;;;;;;;9.38;5.13;;;;;;;;;;4983146;28;20047;-62
2023/10/23 06:33:59;;;;;;;9.02;5.30;;;;;;;;;;4984620;28;20074;-62
2023/10/23 06:36:24;;;;;;;8.75;5.00;;;;;;;;;;4991269;28;20038;-62
2023/10/23 06:38:50;;;;;;;11.32;5.70;;;;;;;;;;4973277;28;20026;-63
2023/10/23 06:41:15;;;;;;;14.20;6.13;;;;;;;;;;4983622;28;20064;-62
2023/10/23 06:43:41;;;;;;;16.20;8.20;;;;;;;;;;4968261;28;20420;-63
2023/10/23 06:46:07;;;;;;;18.83;8.43;;;;;;;;;;4984868;28;20037;-63
2023/10/23 06:48:33;;;;;;;11.40;5.88;;;;;;;;;;4976037;28;20030;-62
2023/10/23 06:50:59;;;;;;;10.60;6.95;;;;;;;;;;4963619;28;20034;-63
2023/10/23 06:53:25;;;;;;;14.88;6.03;;;;;;;;;;4976514;28;20106;-63
2023/10/23 06:55:52;;;;;;;11.73;5.85;;;;;;;;;;4976278;28;20487;-63
2023/10/23 06:58:21;;;;;;;13.88;6.45;;;;;;;;;;4976304;28;20030;-63
2023/10/23 07:00:47;;;;;;;8.60;4.78;;;;;;;;;;4978523;28;20023;-62
2023/10/23 07:03:13;;;;;;;8.75;4.13;;;;;;;;;;4976303;28;20495;-63
2023/10/23 07:05:40;;;;;;;12.18;4.88;;;;;;;;;;4975887;28;20031;-63
2023/10/23 07:08:05;;;;;;;8.68;4.45;;;;;;;;;;4975929;28;20061;-63
2023/10/23 07:10:35;;;;;;;12.50;5.57;;;;;;;;;;4976152;28;20480;-63
2023/10/23 07:13:02;;;;;;;9.73;4.80;;;;;;;;;;4989794;28;20037;-63
2023/10/23 07:15:28;;;;;;;9.05;4.75;;;;;;;;;;4995717;28;20264;-63
2023/10/23 07:17:53;;;;;;;9.73;4.70;;;;;;;;;;4979837;28;20034;-63
2023/10/23 07:20:19;;;;;;;9.85;4.65;;;;;;;;;;4975642;28;20031;-63
2023/10/23 07:22:44;;;;;;;8.85;4.75;;;;;;;;;;4959075;28;20029;-63
2023/10/23 07:25:13;;;;;;;7.28;4.15;;;;;;;;;;4956705;28;20031;-63
2023/10/23 07:27:39;;;;;;;9.43;4.97;;;;;;;;;;4956311;28;20024;-63
2023/10/23 07:30:05;;;;;;;8.07;4.55;;;;;;;;;;4968024;28;20022;-63
2023/10/23 07:32:31;;;;;;;10.35;4.88;;;;;;;;;;4975071;28;20492;-63
2023/10/23 07:34:56;;;;;;;9.85;4.75;;;;;;;;;;4974102;28;20035;-62
2023/10/23 07:37:22;;;;;;;10.10;5.65;;;;;;;;;;4975778;28;20031;-63
2023/10/23 07:39:48;;;;;;;8.48;4.85;;;;;;;;;;4975393;28;20037;-63
2023/10/23 07:42:15;;;;;;;11.23;5.72;;;;;;;;;;4975457;28;20026;-62
2023/10/23 07:44:43;;;;;;;15.55;6.13;;;;;;;;;;4975652;28;20097;-62
2023/10/23 07:47:09;;;;;;;9.43;4.88;;;;;;;;;;4975585;28;20037;-63
2023/10/23 07:49:34;;;;;;;8.48;4.38;;;;;;;;;;4974795;28;20031;-62
2023/10/23 07:52:00;;;;;;;7.07;4.30;;;;;;;;;;4977575;28;20539;-63
2023/10/23 07:54:25;;;;;;;8.05;3.83;;;;;;;;;;4975408;28;20023;-62
2023/10/23 07:56:55;;;;;;;8.48;3.63;;;;;;;;;;4975452;28;20030;-63
2023/10/23 07:59:21;;;;;;;5.68;3.38;;;;;;;;;;4975286;28;20054;-63
2023/10/23 08:01:47;;;;;;;6.57;3.53;;;;;;;;;;4975191;28;20030;-62
2023/10/23 08:04:13;;;;;;;5.65;3.50;;;;;;;;;;4974856;28;20365;-62
2023/10/23 08:06:38;;;;;;;10.73;4.07;;;;;;;;;;4969159;28;20046;-63
2023/10/23 08:09:06;;;;;;;7.65;3.65;;;;;;;;;;4965108;28;20031;-63
2023/10/23 08:11:32;;;;;;;9.02;3.33;;;;;;;;;;4965834;28;20082;-63
2023/10/23 08:13:58;;;;;;;6.22;2.72;;;;;;;;;;4969464;28;20026;-63
2023/10/23 08:16:23;;;;;;;8.63;3.20;;;;;;;;;;4974954;28;20034;-63
2023/10/23 08:18:49;;;;;;;7.57;2.80;;;;;;;;;;4974776;28;20034;-63
2023/10/23 08:21:15;;;;;;;6.22;2.20;;;;;;;;;;4974726;28;20035;-63
2023/10/23 08:23:42;;;;;;;5.45;2.00;;;;;;;;;;4974753;28;20041;-63
2023/10/23 08:26:08;;;;;;;3.25;2.45;;;;;;;;;;4974700;28;20512;-63
2023/10/23 08:28:34;;;;;;;2.97;2.25;;;;;;;;;;4974687;28;20170;-63
2023/10/23 08:30:59;;;;;;;5.32;2.30;;;;;;;;;;4974701;28;20384;-63
2023/10/23 08:33:25;;;;;;;6.25;2.38;;;;;;;;;;4973948;28;20412;-63
2023/10/23 08:35:50;;;;;;;6.72;2.58;;;;;;;;;;4974616;28;20383;-63
2023/10/23 08:38:15;;;;;;;4.13;2.15;;;;;;;;;;4971335;28;20050;-65
2023/10/23 08:40:41;;;;;;;5.60;2.10;;;;;;;;;;4956656;28;20098;-63
2023/10/23 08:43:08;;;;;;;5.07;2.72;;;;;;;;;;4965709;28;20035;-64
2023/10/23 08:45:34;;;;;;;4.65;2.00;;;;;;;;;;4955166;28;20023;-63
2023/10/23 08:47:59;;;;;;;6.03;2.55;;;;;;;;;;4969538;28;20042;-63
2023/10/23 08:50:25;;;;;;;6.07;3.15;;;;;;;;;;4972330;28;20031;-64
2023/10/23 08:52:59;;;;;;;6.03;2.60;;;;;;;;;;4974216;28;20033;-64
2023/10/23 08:55:27;;;;;;;6.93;2.75;;;;;;;;;;4974467;28;20033;-63
2023/10/23 08:57:54;;;;;;;7.45;2.40;;;;;;;;;;4974159;28;20496;-64
2023/10/23 09:00:23;;;;;;;3.72;2.17;;;;;;;;;;4974079;28;20519;-63
2023/10/23 09:02:49;;;;;;;3.00;1.60;;;;;;;;;;4974181;28;20052;-64
2023/10/23 09:05:15;;;;;;;4.80;1.52;;;;;;;;;;4973872;28;20367;-64
2023/10/23 09:07:40;;;;;;;9.52;2.03;;;;;;;;;;4974082;28;20050;-63
2023/10/23 09:10:06;;;;;;;3.05;1.98;;;;;;;;;;4974201;28;20477;-64
2023/10/23 09:12:33;;;;;;;3.03;1.50;;;;;;;;;;4974194;28;20031;-64
2023/10/23 09:15:16;;;;;;;3.33;1.35;;;;;;;;;;4974297;28;20105;-64
2023/10/23 09:17:43;;;;;;;3.55;1.13;;;;;;;;;;4973798;28;20480;-64
2023/10/23 09:20:26;;;;;;;3.65;1.40;;;;;;;;;;4973399;28;20023;-64
2023/10/23 09:22:53;;;;;;;3.90;1.70;;;;;;;;;;4974718;28;20042;-64
2023/10/23 09:25:23;;;;;;;4.70;1.52;;;;;;;;;;4987825;28;20030;-63
2023/10/23 09:27:50;;;;;;;5.22;1.90;;;;;;;;;;4972648;28;20634;-63
2023/10/23 09:30:21;;;;;;;3.47;1.30;;;;;;;;;;4970637;28;20063;-63
2023/10/23 09:32:55;;;;;;;3.42;1.15;;;;;;;;;;4954624;28;20323;-63
2023/10/23 09:35:26;;;;;;;2.42;1.05;;;;;;;;;;4972917;28;20038;-64
2023/10/23 09:37:51;;;;;;;3.55;1.30;;;;;;;;;;4972991;28;20037;-64
2023/10/23 09:40:17;;;;;;;2.97;1.40;;;;;;;;;;4974115;28;20035;-63
2023/10/23 09:42:43;;;;;;;3.40;1.30;;;;;;;;;;4972460;28;20082;-63
2023/10/23 09:45:09;;;;;;;7.85;2.10;;;;;;;;;;4971645;28;20027;-63
2023/10/23 09:47:36;;;;;;;8.00;2.30;;;;;;;;;;4971626;28;20093;-63
2023/10/23 09:50:03;;;;;;;4.00;1.40;;;;;;;;;;4971981;28;20054;-64
2023/10/23 09:52:32;;;;;;;5.43;1.83;;;;;;;;;;4972102;28;20023;-64
2023/10/23 09:55:03;;;;;;;3.30;1.73;;;;;;;;;;4974694;28;20023;-64
2023/10/23 09:57:34;;;;;;;3.15;1.67;;;;;;;;;;4976971;28;20058;-63
2023/10/23 10:00:01;;;;;;;7.78;1.90;;;;;;;;;;4977443;28;20069;-64
2023/10/23 10:02:29;;;;;;;4.55;1.90;;;;;;;;;;4977559;28;20123;-64
2023/10/23 10:05:30;;;;;;;8.10;1.92;;;;;;;;;;4977685;28;20158;-64
2023/10/23 10:08:07;;;;;;;4.70;2.10;;;;;;;;;;4977432;28;20459;-63
2023/10/23 10:10:36;;;;;;;3.47;1.70;;;;;;;;;;4977743;28;20420;-64
2023/10/23 10:13:03;;;;;;;6.72;2.13;;;;;;;;;;4977725;28;20031;-65
2023/10/23 10:15:31;;;;;;;6.47;1.80;;;;;;;;;;4977614;28;20487;-64
2023/10/23 10:17:56;;;;;;;5.13;1.65;;;;;;;;;;4977543;28;20061;-63
2023/10/23 10:20:23;;;;;;;4.43;1.45;;;;;;;;;;4977548;28;20059;-64
2023/10/23 10:23:01;;;;;;;4.13;1.30;;;;;;;;;;4977389;28;20031;-64
2023/10/23 10:25:27;;;;;;;3.13;1.10;;;;;;;;;;4977308;28;20475;-64
2023/10/23 10:27:57;;;;;;;5.30;1.23;;;;;;;;;;4977286;28;20495;-65
2023/10/23 10:30:40;;;;;;;1.95;0.77;;;;;;;;;;4962219;28;20039;-64
2023/10/23 10:33:10;;;;;;;7.40;1.10;;;;;;;;;;4960254;28;20143;-64
2023/10/23 10:35:36;;;;;;;7.90;1.23;;;;;;;;;;4977171;28;20081;-64
2023/10/23 10:38:03;;;;;;;4.70;1.00;;;;;;;;;;4977161;28;20031;-64
2023/10/23 10:40:59;;;;;;;3.55;1.10;;;;;;;;;;4977097;28;20031;-64
2023/10/23 10:43:28;;;;;;;2.63;0.95;;;;;;;;;;4957380;28;20035;-64
2023/10/23 10:45:55;;;;;;;5.47;1.35;;;;;;;;;;4957571;28;20114;-64
2023/10/23 10:48:23;;;;;;;3.70;0.90;;;;;;;;;;4957360;28;20078;-62
2023/10/23 10:50:48;;;;;;;3.28;0.85;;;;;;;;;;4957728;28;20032;-62
2023/10/23 10:53:14;;;;;;;4.13;1.10;;;;;;;;;;4957373;28;20488;-62
2023/10/23 10:55:43;;;;;;;1.40;0.90;;;;;;;;;;4957445;28;20031;-62
2023/10/23 10:58:10;;;;;;;5.57;1.25;;;;;;;;;;4957231;28;20034;-62
2023/10/23 11:00:37;;;;;;;4.75;1.10;;;;;;;;;;4957440;28;20035;-62
2023/10/23 11:03:03;;;;;;;4.47;1.23;;;;;;;;;;4957359;28;20110;-63
2023/10/23 11:05:29;;;;;;;5.53;1.08;;;;;;;;;;4956876;28;20110;-63
2023/10/23 11:07:54;;;;;;;2.63;0.60;;;;;;;;;;4957301;28;20031;-64
2023/10/23 11:10:21;;;;;;;2.33;0.90;;;;;;;;;;4957266;28;20034;-64
2023/10/23 11:12:47;;;;;;;1.77;1.10;;;;;;;;;;4956987;28;20031;-64
2023/10/23 11:15:13;;;;;;;1.95;0.80;;;;;;;;;;4957200;28;20131;-63
2023/10/23 11:17:41;;;;;;;2.60;1.20;;;;;;;;;;4957206;28;20023;-64
2023/10/23 11:20:11;;;;;;;3.15;0.95;;;;;;;;;;4957299;28;20114;-64
2023/10/23 11:22:41;;;;;;;2.50;1.08;;;;;;;;;;4958334;28;20037;-64
2023/10/23 11:25:08;;;;;;;4.90;1.20;;;;;;;;;;4975959;28;20063;-63
2023/10/23 11:27:35;;;;;;;11.98;2.97;;;;;;;;;;4976653;28;20372;-63
2023/10/23 11:30:00;;;;;;;5.03;1.13;;;;;;;;;;4967152;28;20504;-63
2023/10/23 11:32:27;;;;;;;4.20;1.05;;;;;;;;;;4956962;28;20083;-64
2023/10/23 11:34:53;;;;;;;8.30;1.45;;;;;;;;;;4987854;28;20037;-64
2023/10/23 11:37:19;;;;;;;3.53;1.88;;;;;;;;;;4977073;28;20444;-63
2023/10/23 11:39:47;;;;;;;6.18;1.00;;;;;;;;;;4994948;28;20028;-63
2023/10/23 11:42:14;;;;;;;2.90;0.98;;;;;;;;;;4984049;28;20023;-63
2023/10/23 11:44:41;;;;;;;2.38;1.00;;;;;;;;;;4975123;28;20471;-64
2023/10/23 11:47:07;;;;;;;7.88;1.00;;;;;;;;;;4985317;28;20563;-63
2023/10/23 11:49:33;;;;;;;3.30;0.80;;;;;;;;;;4975414;28;20113;-64
2023/10/23 11:52:00;;;;;;;7.00;1.20;;;;;;;;;;4975463;28;20027;-63
2023/10/23 11:54:27;;;;;;;2.15;0.98;;;;;;;;;;4975326;28;20130;-63
2023/10/23 11:56:55;;;;;;;2.50;0.90;;;;;;;;;;4975001;28;20031;-63
2023/10/23 11:59:21;;;;;;;4.97;1.00;;;;;;;;;;4975140;28;20062;-63
2023/10/23 12:01:48;;;;;;;1.85;0.90;;;;;;;;;;4975022;28;20058;-63
2023/10/23 12:04:14;;;;;;;8.52;1.55;;;;;;;;;;4975066;28;20113;-63
2023/10/23 12:06:40;;;;;;;2.45;0.90;;;;;;;;;;4974997;28;20558;-64
2023/10/23 12:09:06;;;;;;;4.70;1.52;;;;;;;;;;4974979;28;20052;-64
2023/10/23 12:11:33;;;;;;;9.13;1.63;;;;;;;;;;4975447;28;20105;-63
2023/10/23 12:13:59;;;;;;;2.38;1.10;;;;;;;;;;4994566;28;20034;-63
2023/10/23 12:16:30;;;;;;;3.88;1.20;;;;;;;;;;4993700;28;20037;-63
2023/10/23 12:18:56;;;;;;;4.50;1.10;;;;;;;;;;4994121;28;20031;-64
2023/10/23 12:21:22;;;;;;;2.60;0.90;;;;;;;;;;4994112;28;20084;-63
2023/10/23 12:23:47;;;;;;;5.00;1.42;;;;;;;;;;4975099;28;20372;-63
2023/10/23 12:26:13;;;;;;;3.35;1.00;;;;;;;;;;4974338;28;20488;-63
2023/10/23 12:28:39;;;;;;;1.90;0.90;;;;;;;;;;4974500;28;20431;-63
2023/10/23 12:31:04;;;;;;;3.75;0.93;;;;;;;;;;4974441;28;20063;-63
2023/10/23 12:33:33;;;;;;;3.70;0.90;;;;;;;;;;4974185;28;20035;-64
2023/10/23 12:36:03;;;;;;;6.45;1.90;;;;;;;;;;4974523;28;20027;-64
2023/10/23 12:38:30;;;;;;;4.68;1.20;;;;;;;;;;4987283;28;20048;-64
2023/10/23 12:40:58;;;;;;;3.78;1.05;;;;;;;;;;4980551;28;20023;-63
2023/10/23 12:43:23;;;;;;;2.28;0.98;;;;;;;;;;4973643;28;20061;-64
2023/10/23 12:45:48;;;;;;;4.40;1.00;;;;;;;;;;4968418;28;20473;-62
2023/10/23 12:48:14;;;;;;;1.58;0.88;;;;;;;;;;4970478;28;20030;-63
2023/10/23 12:50:39;;;;;;;3.20;1.10;;;;;;;;;;4974286;28;20023;-63
2023/10/23 12:53:05;;;;;;;1.73;1.13;;;;;;;;;;4973917;28;20034;-63
2023/10/23 12:55:30;;;;;;;6.88;1.20;;;;;;;;;;4974369;28;20472;-63
2023/10/23 12:57:56;;;;;;;3.25;1.13;;;;;;;;;;4974080;28;20037;-63
2023/10/23 13:00:21;;;;;;;4.65;1.30;;;;;;;;;;4974095;28;20366;-63
2023/10/23 13:02:46;;;;;;;7.28;1.90;;;;;;;;;;4972695;28;20560;-63
2023/10/23 13:05:12;;;;;;;2.03;1.00;;;;;;;;;;4974022;28;20026;-63
2023/10/23 13:07:38;;;;;;;3.88;1.05;;;;;;;;;;4973677;28;20105;-64
2023/10/23 13:10:04;;;;;;;11.70;1.50;;;;;;;;;;4973253;28;20063;-63
2023/10/23 13:12:29;;;;;;;3.58;1.20;;;;;;;;;;4974071;28;20084;-64
2023/10/23 13:14:55;;;;;;;2.38;0.93;;;;;;;;;;4974157;28;20118;-62
2023/10/23 13:17:20;;;;;;;6.00;1.13;;;;;;;;;;4974043;28;20389;-63
2023/10/23 13:19:46;;;;;;;5.75;1.27;;;;;;;;;;4973818;28;20023;-63
2023/10/23 13:22:14;;;;;;;3.25;1.20;;;;;;;;;;4973693;28;20051;-63
2023/10/23 13:24:40;;;;;;;4.63;1.67;;;;;;;;;;4964946;28;20027;-63
2023/10/23 13:27:06;;;;;;;3.85;1.40;;;;;;;;;;4973919;28;20030;-63
2023/10/23 13:29:32;;;;;;;10.35;2.20;;;;;;;;;;4965970;28;20102;-63
2023/10/23 13:32:01;;;;;;;2.90;1.58;;;;;;;;;;4955556;28;20358;-62
2023/10/23 13:34:27;;;;;;;4.43;1.40;;;;;;;;;;4973795;28;20031;-63
2023/10/23 13:36:52;;;;;;;12.00;2.65;;;;;;;;;;4978746;28;20034;-63
2023/10/23 13:39:17;;;;;;;7.40;1.50;;;;;;;;;;4991571;28;20417;-63
2023/10/23 13:41:43;;;;;;;5.22;1.80;;;;;;;;;;4991820;28;20032;-63
2023/10/23 13:44:08;;;;;;;4.28;1.45;;;;;;;;;;4993365;28;20388;-63
2023/10/23 13:46:34;;;;;;;4.85;1.35;;;;;;;;;;4992515;28;20429;-63
2023/10/23 13:49:01;;;;;;;3.03;1.30;;;;;;;;;;4992045;28;20031;-62
2023/10/23 13:51:27;;;;;;;4.88;1.38;;;;;;;;;;4992924;28;20117;-63
2023/10/23 13:53:52;;;;;;;3.42;1.30;;;;;;;;;;4993317;28;20106;-63
2023/10/23 13:56:18;;;;;;;3.38;1.20;;;;;;;;;;4993371;28;20099;-63
2023/10/23 13:58:43;;;;;;;3.42;1.23;;;;;;;;;;4993159;28;20435;-63
2023/10/23 14:01:09;;;;;;;7.18;1.60;;;;;;;;;;4992850;28;20559;-63
2023/10/23 14:03:34;;;;;;;3.17;1.15;;;;;;;;;;4993281;28;20030;-64
2023/10/23 14:06:00;;;;;;;4.93;1.45;;;;;;;;;;4992730;28;20042;-63
2023/10/23 14:08:25;;;;;;;4.07;1.60;;;;;;;;;;4993068;28;20149;-62
2023/10/23 14:10:52;;;;;;;4.18;1.20;;;;;;;;;;4992964;28;20177;-65
2023/10/23 14:13:18;;;;;;;4.00;1.20;;;;;;;;;;4993014;28;20530;-61
2023/10/23 14:15:45;;;;;;;10.45;1.92;;;;;;;;;;4992927;28;20038;-63
2023/10/23 14:18:10;;;;;;;14.50;1.85;;;;;;;;;;4992817;28;20041;-63
2023/10/23 14:20:36;;;;;;;2.67;1.35;;;;;;;;;;4992751;28;20019;-63
2023/10/23 14:23:01;;;;;;;3.58;1.10;;;;;;;;;;4983206;28;20046;-63
2023/10/23 14:25:27;;;;;;;3.03;1.20;;;;;;;;;;4968762;28;20039;-63
2023/10/23 14:27:52;;;;;;;12.65;1.83;;;;;;;;;;4973469;28;20027;-63
2023/10/23 14:30:18;;;;;;;6.30;1.40;;;;;;;;;;4973496;28;20074;-63
2023/10/23 14:32:43;;;;;;;4.60;1.90;;;;;;;;;;4964019;28;20125;-63
2023/10/23 14:35:09;;;;;;;3.67;1.33;;;;;;;;;;4972824;28;20043;-63
2023/10/23 14:37:35;;;;;;;8.93;1.67;;;;;;;;;;4973561;28;20035;-64